createdAt,value
2022-08-02T00:01:45.099Z,95786.59
2022-08-02T00:04:12.834Z,95778.16
2022-08-02T00:06:42.460Z,95773.63
2022-08-02T00:09:10.188Z,95784.31
2022-08-02T00:11:38.349Z,95790.22
2022-08-02T00:14:11.040Z,95793.72
2022-08-02T00:16:38.968Z,95793.81
2022-08-02T00:19:06.792Z,95795.91
2022-08-02T00:21:34.942Z,95803.34
2022-08-02T00:24:28.526Z,95798.44
2022-08-02T00:26:52.435Z,95802.97
2022-08-02T00:29:20.154Z,95807.06
2022-08-02T00:31:48.258Z,95808.69
2022-08-02T00:34:28.619Z,95809.28
2022-08-02T00:36:58.155Z,95810.31
2022-08-02T00:39:34.985Z,95812.41
2022-08-02T00:42:04.949Z,95805.44
2022-08-02T00:44:32.782Z,95808.94
2022-08-02T00:47:00.960Z,95813.22
2022-08-02T00:49:28.856Z,95822.63
2022-08-02T00:51:56.572Z,95811.13
2022-08-02T00:54:24.270Z,95819.38
2022-08-02T00:56:53.734Z,95819.72
2022-08-02T00:59:21.359Z,95818.09
2022-08-02T01:01:55.952Z,95817.28
2022-08-02T01:04:30.728Z,95810.31
2022-08-02T01:07:00.281Z,95809.59
2022-08-02T01:09:28.387Z,95808.78
2022-08-02T01:11:57.752Z,95807.88
2022-08-02T01:14:30.945Z,95800.22
2022-08-02T01:17:04.455Z,95793.25
2022-08-02T01:19:38.995Z,95797.91
2022-08-02T01:22:17.867Z,95799.16
2022-08-02T01:25:05.599Z,95785.38
2022-08-02T01:27:52.131Z,95788.03
2022-08-02T01:30:22.494Z,95793.81
2022-08-02T01:32:56.082Z,95796.72
2022-08-02T01:35:29.381Z,95789.53
2022-08-02T01:38:22.603Z,95796.13
2022-08-02T01:40:53.198Z,95789.59
2022-08-02T01:43:23.949Z,95793.78
2022-08-02T01:45:55.347Z,95795.41
2022-08-02T01:48:25.436Z,95793.78
2022-08-02T01:50:54.840Z,95793.53
2022-08-02T01:53:25.305Z,95787.34
2022-08-02T01:55:58.102Z,95783.66
2022-08-02T01:58:30.291Z,95789.81
2022-08-02T02:01:02.525Z,95788.03
2022-08-02T02:03:33.733Z,95792.97
2022-08-02T02:06:04.503Z,95803.38
2022-08-02T02:08:35.017Z,95800.47
2022-08-02T02:12:11.940Z,95796.31
2022-08-02T02:13:53.485Z,95787.03
2022-08-02T02:16:23.734Z,95785.41
2022-08-02T02:18:53.512Z,95781.88
2022-08-02T02:21:21.815Z,95779.94
2022-08-02T02:23:50.116Z,95783.75
2022-08-02T02:26:29.561Z,95794.19
2022-08-02T02:29:02.383Z,95786.34
2022-08-02T02:31:35.759Z,95788.72
2022-08-02T02:34:06.242Z,95791.31
2022-08-02T02:36:36.314Z,95789.81
2022-08-02T02:39:11.625Z,95792.91
2022-08-02T02:41:44.993Z,95797.91
2022-08-02T02:44:17.349Z,95791.06
2022-08-02T02:46:49.230Z,95796.69
2022-08-02T02:49:18.894Z,95800.56
2022-08-02T02:51:47.838Z,95795.53
2022-08-02T02:54:30.939Z,95789.28
2022-08-02T02:57:05.172Z,95790.03
2022-08-02T02:59:34.978Z,95791.97
2022-08-02T03:02:06.046Z,95793.50
2022-08-02T03:04:55.317Z,95791.81
2022-08-02T03:07:22.901Z,95781.97
2022-08-02T03:09:53.773Z,95782.03
2022-08-02T03:12:24.058Z,95780.69
2022-08-02T03:14:55.113Z,95780.38
2022-08-02T03:17:24.581Z,95779.72
2022-08-02T03:19:52.192Z,95786.47
2022-08-02T03:22:20.275Z,95791.75
2022-08-02T03:24:47.954Z,95787.81
2022-08-02T03:27:15.891Z,95794.63
2022-08-02T03:29:43.534Z,95793.00
2022-08-02T03:32:11.482Z,95795.06
2022-08-02T03:34:40.652Z,95797.16
2022-08-02T03:37:08.393Z,95791.13
2022-08-02T03:39:36.763Z,95803.66
2022-08-02T03:42:15.342Z,95793.00
2022-08-02T03:44:44.277Z,95793.00
2022-08-02T03:47:13.092Z,95800.75
2022-08-02T03:49:43.865Z,95789.91
2022-08-02T03:52:12.919Z,95789.91
2022-08-02T03:54:45.473Z,95802.03
2022-08-02T03:57:14.562Z,95803.53
2022-08-02T03:59:43.480Z,95803.06
2022-08-02T04:02:11.964Z,95807.38
2022-08-02T04:04:41.973Z,95808.78
2022-08-02T04:07:09.611Z,95814.72
2022-08-02T04:09:38.207Z,95815.16
2022-08-02T04:12:06.538Z,95811.25
2022-08-02T04:14:36.492Z,95811.38
2022-08-02T04:17:08.679Z,95814.63
2022-08-02T04:19:40.233Z,95816.28
2022-08-02T04:22:15.250Z,95813.53
2022-08-02T04:24:49.913Z,95815.56
2022-08-02T04:27:50.524Z,95801.44
2022-08-02T04:30:10.151Z,95810.78
2022-08-02T04:32:39.221Z,95805.59
2022-08-02T04:35:23.742Z,95807.81
2022-08-02T04:38:09.962Z,95806.78
2022-08-02T04:40:38.661Z,95799.03
2022-08-02T04:43:06.589Z,95800.56
2022-08-02T04:45:35.479Z,95805.59
2022-08-02T04:48:05.287Z,95806.09
2022-08-02T04:50:34.085Z,95814.84
2022-08-02T04:53:03.242Z,95812.59
2022-08-02T04:55:31.422Z,95815.31
2022-08-02T04:57:59.728Z,95820.94
2022-08-02T05:00:29.625Z,95820.03
2022-08-02T05:02:58.007Z,95825.38
2022-08-02T05:05:26.499Z,95824.34
2022-08-02T05:07:54.266Z,95831.22
2022-08-02T05:10:24.450Z,95835.09
2022-08-02T05:12:52.145Z,95838.28
2022-08-02T05:15:20.393Z,95839.94
2022-08-02T05:17:49.767Z,95832.63
2022-08-02T05:20:19.064Z,95832.63
2022-08-02T05:22:47.008Z,95838.81
2022-08-02T05:25:15.559Z,95835.06
2022-08-02T05:27:44.527Z,95837.16
2022-08-02T05:30:13.247Z,95834.94
2022-08-02T05:32:45.505Z,95838.06
2022-08-02T05:35:13.603Z,95837.25
2022-08-02T05:37:42.954Z,95834.44
2022-08-02T05:40:12.660Z,95837.56
2022-08-02T05:42:41.084Z,95836.97
2022-08-02T05:45:11.013Z,95840.41
2022-08-02T05:47:39.528Z,95841.22
2022-08-02T05:50:10.603Z,95840.28
2022-08-02T05:52:46.859Z,95840.06
2022-08-02T05:55:19.105Z,95841.31
2022-08-02T05:57:55.158Z,95837.31
2022-08-02T06:00:24.605Z,95841.25
2022-08-02T06:03:16.945Z,95849.84
2022-08-02T06:05:52.171Z,95852.31
2022-08-02T06:08:22.075Z,95847.00
2022-08-02T06:10:52.827Z,95846.13
2022-08-02T06:13:21.425Z,95847.25
2022-08-02T06:15:53.893Z,95851.81
2022-08-02T06:18:28.471Z,95844.50
2022-08-02T06:20:58.994Z,95842.78
2022-08-02T06:23:57.595Z,95844.06
2022-08-02T06:26:28.199Z,95835.53
2022-08-02T06:28:58.337Z,95835.22
2022-08-02T06:31:27.381Z,95834.22
2022-08-02T06:33:55.399Z,95838.94
2022-08-02T06:36:32.814Z,95842.00
2022-08-02T06:39:05.561Z,95848.31
2022-08-02T06:41:40.608Z,95844.19
2022-08-02T06:44:45.524Z,95843.56
2022-08-02T06:47:10.817Z,95844.19
2022-08-02T06:49:51.915Z,95843.03
2022-08-02T06:52:27.655Z,95842.06
2022-08-02T06:54:57.003Z,95842.38
2022-08-02T06:57:24.907Z,95843.09
2022-08-02T06:59:53.046Z,95840.22
2022-08-02T07:02:22.229Z,95831.50
2022-08-02T07:04:51.381Z,95831.59
2022-08-02T07:07:19.092Z,95832.69
2022-08-02T07:09:56.683Z,95844.78
2022-08-02T07:12:29.944Z,95838.44
2022-08-02T07:14:58.553Z,95843.19
2022-08-02T07:17:27.693Z,95837.34
2022-08-02T07:19:55.527Z,95836.53
2022-08-02T07:22:24.402Z,95842.84
2022-08-02T07:24:52.835Z,95845.47
2022-08-02T07:27:20.555Z,95843.84
2022-08-02T07:29:48.478Z,95852.19
2022-08-02T07:32:17.276Z,95843.91
2022-08-02T07:34:50.944Z,95851.59
2022-08-02T07:37:53.847Z,95853.84
2022-08-02T07:40:14.180Z,95850.72
2022-08-02T07:42:43.914Z,95863.91
2022-08-02T07:45:12.833Z,95857.97
2022-08-02T07:47:41.129Z,95864.22
2022-08-02T07:50:12.156Z,95857.44
2022-08-02T07:52:40.699Z,95853.41
2022-08-02T07:55:09.429Z,95853.50
2022-08-02T07:57:41.273Z,95855.72
2022-08-02T08:00:13.594Z,95852.91
2022-08-02T08:02:41.607Z,95845.94
2022-08-02T08:05:11.240Z,95842.75
2022-08-02T08:07:40.015Z,95846.78
2022-08-02T08:10:09.250Z,95837.84
2022-08-02T08:12:36.924Z,95843.56
2022-08-02T08:15:06.307Z,95842.47
2022-08-02T08:17:35.055Z,95840.28
2022-08-02T08:20:03.638Z,95841.84
2022-08-02T08:22:32.759Z,95839.38
2022-08-02T08:25:00.700Z,95835.31
2022-08-02T08:27:28.331Z,95840.16
2022-08-02T08:29:56.695Z,95839.63
2022-08-02T08:32:24.849Z,95835.31
2022-08-02T08:34:53.341Z,95834.56
2022-08-02T08:37:21.241Z,95835.03
2022-08-02T08:39:57.578Z,95831.47
2022-08-02T08:42:27.626Z,95834.25
2022-08-02T08:44:56.070Z,95835.16
2022-08-02T08:47:24.943Z,95829.69
2022-08-02T08:49:55.894Z,95835.06
2022-08-02T08:52:27.682Z,95831.75
2022-08-02T08:54:59.294Z,95826.75
2022-08-02T08:57:29.617Z,95828.53
2022-08-02T08:59:57.712Z,95833.06
2022-08-02T09:02:28.298Z,95827.00
2022-08-02T09:04:56.819Z,95832.94
2022-08-02T09:07:24.781Z,95840.38
2022-08-02T09:09:52.976Z,95832.63
2022-08-02T09:12:24.907Z,95840.00
2022-08-02T09:14:52.713Z,95837.13
2022-08-02T09:17:21.395Z,95842.84
2022-08-02T09:20:06.667Z,95847.22
2022-08-02T09:22:34.454Z,95840.81
2022-08-02T09:25:02.346Z,95836.41
2022-08-02T09:27:36.967Z,95843.47
2022-08-02T09:30:12.078Z,95837.44
2022-08-02T09:32:46.231Z,95834.53
2022-08-02T09:35:15.630Z,95847.00
2022-08-02T09:37:48.341Z,95842.94
2022-08-02T09:40:16.445Z,95846.16
2022-08-02T09:42:59.005Z,95843.88
2022-08-02T09:45:32.041Z,95842.44
2022-08-02T09:47:59.777Z,95843.66
2022-08-02T09:50:28.307Z,95832.50
2022-08-02T09:52:56.881Z,95836.03
2022-08-02T09:55:25.957Z,95839.97
2022-08-02T09:57:55.438Z,95843.31
2022-08-02T10:00:43.512Z,95837.97
2022-08-02T10:03:22.147Z,95831.06
2022-08-02T10:05:55.885Z,95833.41
2022-08-02T10:08:32.887Z,95826.19
2022-08-02T10:11:01.847Z,95825.91
2022-08-02T10:13:34.378Z,95834.56
2022-08-02T10:16:04.410Z,95826.06
2022-08-02T10:18:40.664Z,95819.78
2022-08-02T10:21:14.854Z,95816.41
2022-08-02T10:23:45.515Z,95817.28
2022-08-02T10:26:19.412Z,95803.91
2022-08-02T10:28:50.494Z,95816.72
2022-08-02T10:31:25.221Z,95805.69
2022-08-02T10:33:55.060Z,95803.81
2022-08-02T10:36:27.454Z,95801.31
2022-08-02T10:38:58.576Z,95799.94
2022-08-02T10:41:45.324Z,95795.44
2022-08-02T10:44:27.039Z,95790.81
2022-08-02T10:47:22.403Z,95794.97
2022-08-02T10:49:51.555Z,95787.56
2022-08-02T10:52:20.151Z,95782.19
2022-08-02T10:54:56.434Z,95776.59
2022-08-02T10:57:27.117Z,95767.03
2022-08-02T10:59:59.291Z,95764.91
2022-08-02T11:02:41.891Z,95765.47
2022-08-02T11:05:27.746Z,95769.44
2022-08-02T11:08:19.938Z,95762.00
2022-08-02T11:10:47.625Z,95759.25
2022-08-02T11:13:17.756Z,95752.84
2022-08-02T11:15:56.944Z,95762.69
2022-08-02T11:18:46.015Z,95769.28
2022-08-02T11:21:25.065Z,95766.97
2022-08-02T11:23:53.854Z,95765.03
2022-08-02T11:26:44.296Z,95762.66
2022-08-02T11:29:15.799Z,95759.69
2022-08-02T11:31:45.882Z,95758.44
2022-08-02T11:34:37.521Z,95752.47
2022-08-02T11:37:03.147Z,95754.66
2022-08-02T11:39:30.844Z,95759.06
2022-08-02T11:42:00.583Z,95755.72
2022-08-02T11:44:30.487Z,95746.72
2022-08-02T11:46:59.245Z,95753.28
2022-08-02T11:49:27.689Z,95744.66
2022-08-02T11:51:57.523Z,95749.97
2022-08-02T11:54:31.590Z,95741.25
2022-08-02T11:57:17.043Z,95742.78
2022-08-02T11:59:49.313Z,95743.66
2022-08-02T12:02:19.198Z,95747.38
2022-08-02T12:04:53.811Z,95739.53
2022-08-02T12:07:34.305Z,95742.09
2022-08-02T12:10:06.686Z,95742.56
2022-08-02T12:12:35.394Z,95746.56
2022-08-02T12:15:03.115Z,95745.53
2022-08-02T12:17:49.120Z,95750.66
2022-08-02T12:20:17.289Z,95744.03
2022-08-02T12:22:45.836Z,95744.03
2022-08-02T12:25:34.204Z,95736.28
2022-08-02T12:28:22.566Z,95725.47
2022-08-02T12:30:53.197Z,95730.94
2022-08-02T12:33:22.266Z,95728.16
2022-08-02T12:35:50.340Z,95733.50
2022-08-02T12:38:18.575Z,95734.47
2022-08-02T12:40:48.065Z,95736.06
2022-08-02T12:43:21.529Z,95732.75
2022-08-02T12:45:52.800Z,95730.34
2022-08-02T12:48:37.141Z,95731.63
2022-08-02T12:51:20.050Z,95718.31
2022-08-02T12:53:59.834Z,95730.28
2022-08-02T12:56:31.608Z,95723.34
2022-08-02T12:59:00.283Z,95726.44
2022-08-02T13:01:29.792Z,95718.00
2022-08-02T13:04:10.374Z,95715.16
2022-08-02T13:06:44.764Z,95708.31
2022-08-02T13:09:15.247Z,95698.53
2022-08-02T13:11:44.752Z,95703.56
2022-08-02T13:14:13.865Z,95702.25
2022-08-02T13:16:42.978Z,95704.91
2022-08-02T13:19:11.326Z,95703.47
2022-08-02T13:21:41.009Z,95707.09
2022-08-02T13:24:38.788Z,95696.22
2022-08-02T13:27:10.011Z,95691.69
2022-08-02T13:29:38.607Z,95694.59
2022-08-02T13:32:06.669Z,95683.38
2022-08-02T13:34:34.422Z,95688.03
2022-08-02T13:37:03.147Z,95681.97
2022-08-02T13:39:31.277Z,95686.50
2022-08-02T13:41:58.918Z,95675.19
2022-08-02T13:44:28.067Z,95681.03
2022-08-02T13:46:55.711Z,95682.09
2022-08-02T13:49:51.128Z,95682.50
2022-08-02T13:52:12.731Z,95679.91
2022-08-02T13:54:41.422Z,95676.88
2022-08-02T13:57:09.134Z,95671.22
2022-08-02T13:59:57.560Z,95678.59
2022-08-02T14:02:27.922Z,95677.66
2022-08-02T14:04:56.183Z,95671.81
2022-08-02T14:07:23.919Z,95666.78
2022-08-02T14:09:51.875Z,95671.59
2022-08-02T14:12:20.159Z,95668.66
2022-08-02T14:14:49.179Z,95679.16
2022-08-02T14:17:18.974Z,95667.31
2022-08-02T14:19:46.912Z,95669.53
2022-08-02T14:22:14.580Z,95673.13
2022-08-02T14:24:42.573Z,95668.75
2022-08-02T14:27:10.285Z,95670.09
2022-08-02T14:29:39.029Z,95678.03
2022-08-02T14:32:08.968Z,95678.66
2022-08-02T14:34:36.598Z,95669.94
2022-08-02T14:37:04.477Z,95675.66
2022-08-02T14:39:42.961Z,95666.22
2022-08-02T14:42:20.157Z,95663.69
2022-08-02T14:44:48.226Z,95670.38
2022-08-02T14:47:17.274Z,95658.97
2022-08-02T14:49:49.873Z,95659.59
2022-08-02T14:52:18.172Z,95662.50
2022-08-02T14:54:46.781Z,95652.56
2022-08-02T14:57:14.689Z,95653.16
2022-08-02T14:59:43.403Z,95651.50
2022-08-02T15:02:13.550Z,95655.66
2022-08-02T15:04:43.953Z,95649.03
2022-08-02T15:07:14.150Z,95649.63
2022-08-02T15:09:42.109Z,95652.88
2022-08-02T15:12:11.018Z,95652.00
2022-08-02T15:14:40.556Z,95659.88
2022-08-02T15:17:08.922Z,95656.78
2022-08-02T15:19:58.943Z,95656.78
2022-08-02T15:22:26.611Z,95651.03
2022-08-02T15:24:54.578Z,95655.38
2022-08-02T15:27:22.404Z,95658.13
2022-08-02T15:29:50.879Z,95650.75
2022-08-02T15:32:19.699Z,95656.66
2022-08-02T15:34:47.702Z,95645.56
2022-08-02T15:37:15.377Z,95652.78
2022-08-02T15:39:44.474Z,95649.41
2022-08-02T15:42:12.688Z,95648.44
2022-08-02T15:44:41.135Z,95653.56
2022-08-02T15:47:08.923Z,95646.94
2022-08-02T15:49:41.111Z,95636.13
2022-08-02T15:52:10.863Z,95639.09
2022-08-02T15:54:39.319Z,95643.31
2022-08-02T15:57:08.339Z,95646.75
2022-08-02T15:59:36.553Z,95647.03
2022-08-02T16:02:04.884Z,95647.91
2022-08-02T16:04:32.943Z,95641.66
2022-08-02T16:07:01.534Z,95640.44
2022-08-02T16:09:29.535Z,95643.31
2022-08-02T16:11:57.424Z,95649.59
2022-08-02T16:14:26.444Z,95640.56
2022-08-02T16:16:55.942Z,95636.28
2022-08-02T16:19:47.596Z,95640.31
2022-08-02T16:22:12.584Z,95633.22
2022-08-02T16:24:40.896Z,95641.72
2022-08-02T16:27:09.349Z,95625.91
2022-08-02T16:29:38.795Z,95634.09
2022-08-02T16:32:07.118Z,95632.72
2022-08-02T16:35:04.049Z,95635.56
2022-08-02T16:37:23.602Z,95636.38
2022-08-02T16:39:51.671Z,95628.41
2022-08-02T16:42:25.574Z,95625.84
2022-08-02T16:44:55.173Z,95621.00
2022-08-02T16:47:37.009Z,95621.22
2022-08-02T16:50:11.347Z,95622.47
2022-08-02T16:52:39.371Z,95619.19
2022-08-02T16:55:10.299Z,95615.84
2022-08-02T16:57:42.919Z,95615.03
2022-08-02T17:00:16.236Z,95615.56
2022-08-02T17:02:44.191Z,95616.88
2022-08-02T17:05:15.147Z,95618.28
2022-08-02T17:08:10.359Z,95621.09
2022-08-02T17:10:31.295Z,95622.09
2022-08-02T17:13:11.262Z,95617.69
2022-08-02T17:16:08.696Z,95617.28
2022-08-02T17:18:30.250Z,95631.81
2022-08-02T17:20:58.088Z,95630.09
2022-08-02T17:24:03.853Z,95632.09
2022-08-02T17:26:14.435Z,95637.94
2022-08-02T17:29:14.636Z,95639.13
2022-08-02T17:31:42.144Z,95628.94
2022-08-02T17:34:11.749Z,95628.03
2022-08-02T17:36:39.727Z,95629.19
2022-08-02T17:39:07.435Z,95622.69
2022-08-02T17:41:37.999Z,95628.63
2022-08-02T17:44:16.811Z,95631.34
2022-08-02T17:47:08.796Z,95629.63
2022-08-02T17:49:44.233Z,95633.44
2022-08-02T17:52:50.557Z,95629.44
2022-08-02T17:55:04.667Z,95627.59
2022-08-02T17:57:55.591Z,95639.06
2022-08-02T18:00:21.018Z,95640.44
2022-08-02T18:02:52.841Z,95638.25
2022-08-02T18:05:39.341Z,95642.88
2022-08-02T18:08:10.132Z,95636.63
2022-08-02T18:10:39.257Z,95635.00
2022-08-02T18:13:07.258Z,95637.78
2022-08-02T18:15:35.600Z,95630.09
2022-08-02T18:18:05.098Z,95624.03
2022-08-02T18:20:33.071Z,95639.13
2022-08-02T18:23:01.166Z,95631.25
2022-08-02T18:25:36.913Z,95633.81
2022-08-02T18:28:12.158Z,95633.50
2022-08-02T18:30:40.732Z,95639.41
2022-08-02T18:33:58.543Z,95649.34
2022-08-02T18:35:57.905Z,95641.31
2022-08-02T18:38:26.920Z,95644.94
2022-08-02T18:40:55.625Z,95641.25
2022-08-02T18:43:25.747Z,95655.22
2022-08-02T18:46:06.461Z,95642.34
2022-08-02T18:48:48.016Z,95651.69
2022-08-02T18:51:19.031Z,95653.91
2022-08-02T18:53:48.846Z,95648.63
2022-08-02T18:56:19.645Z,95650.84
2022-08-02T18:58:51.827Z,95645.03
2022-08-02T19:01:31.552Z,95654.28
2022-08-02T19:04:03.923Z,95658.69
2022-08-02T19:06:32.080Z,95660.06
2022-08-02T19:09:11.475Z,95660.38
2022-08-02T19:11:47.523Z,95655.00
2022-08-02T19:14:27.533Z,95653.16
2022-08-02T19:16:57.966Z,95653.44
2022-08-02T19:19:28.964Z,95658.31
2022-08-02T19:22:18.126Z,95654.03
2022-08-02T19:24:45.924Z,95655.19
2022-08-02T19:27:15.064Z,95662.72
2022-08-02T19:29:53.372Z,95656.00
2022-08-02T19:32:41.709Z,95665.94
2022-08-02T19:35:28.432Z,95657.84
2022-08-02T19:38:07.393Z,95664.84
2022-08-02T19:40:35.364Z,95665.91
2022-08-02T19:44:24.048Z,95672.88
2022-08-02T19:45:51.691Z,95673.97
2022-08-02T19:48:24.079Z,95675.53
2022-08-02T19:50:56.688Z,95666.03
2022-08-02T19:53:29.190Z,95665.72
2022-08-02T19:56:00.122Z,95661.03
2022-08-02T19:58:29.431Z,95680.00
2022-08-02T20:00:58.904Z,95670.84
2022-08-02T20:03:50.796Z,95676.50
2022-08-02T20:06:15.867Z,95679.16
2022-08-02T20:08:53.278Z,95678.34
2022-08-02T20:11:24.999Z,95680.66
2022-08-02T20:13:53.398Z,95683.31
2022-08-02T20:16:27.714Z,95684.31
2022-08-02T20:18:56.557Z,95684.19
2022-08-02T20:21:36.366Z,95694.31
2022-08-02T20:24:06.465Z,95684.31
2022-08-02T20:26:35.372Z,95684.81
2022-08-02T20:29:03.825Z,95678.63
2022-08-02T20:31:31.561Z,95682.38
2022-08-02T20:33:59.357Z,95669.75
2022-08-02T20:36:28.851Z,95674.56
2022-08-02T20:38:56.741Z,95681.09
2022-08-02T20:41:36.536Z,95685.63
2022-08-02T20:44:05.308Z,95684.13
2022-08-02T20:46:43.464Z,95689.16
2022-08-02T20:49:20.075Z,95685.47
2022-08-02T20:51:54.617Z,95677.03
2022-08-02T20:54:25.934Z,95684.00
2022-08-02T20:56:54.047Z,95679.09
2022-08-02T20:59:23.511Z,95678.25
2022-08-02T21:01:56.922Z,95677.81
2022-08-02T21:04:25.278Z,95681.97
2022-08-02T21:06:56.087Z,95682.06
2022-08-02T21:09:52.797Z,95672.19
2022-08-02T21:12:12.649Z,95667.13
2022-08-02T21:14:41.038Z,95668.63
2022-08-02T21:17:10.500Z,95664.19
2022-08-02T21:19:44.420Z,95662.63
2022-08-02T21:22:14.525Z,95666.53
2022-08-02T21:24:42.731Z,95660.63
2022-08-02T21:29:58.035Z,95664.16
2022-08-02T21:32:26.213Z,95661.81
2022-08-02T21:34:54.371Z,95664.41
2022-08-02T21:37:23.404Z,95659.97
2022-08-02T21:40:01.433Z,95657.13
2022-08-02T21:42:29.716Z,95656.13
2022-08-02T21:44:57.561Z,95656.13
2022-08-02T21:47:26.781Z,95644.94
2022-08-02T21:50:13.386Z,95656.94
2022-08-02T21:52:51.057Z,95652.88
2022-08-02T21:55:21.242Z,95648.59
2022-08-02T21:57:52.660Z,95645.91
2022-08-02T22:00:28.192Z,95652.88
2022-08-02T22:02:57.116Z,95661.50
2022-08-02T22:05:27.217Z,95647.88
2022-08-02T22:08:07.043Z,95653.53
2022-08-02T22:10:52.194Z,95659.47
2022-08-02T22:13:19.874Z,95656.78
2022-08-02T22:15:47.535Z,95655.16
2022-08-02T22:18:21.285Z,95660.03
2022-08-02T22:20:57.809Z,95656.28
2022-08-02T22:23:38.888Z,95653.38
2022-08-02T22:26:14.913Z,95664.91
2022-08-02T22:31:41.325Z,95664.56
2022-08-02T22:34:26.801Z,95673.03
2022-08-02T22:36:57.827Z,95667.41
2022-08-02T22:39:28.643Z,95667.97
2022-08-02T22:42:06.148Z,95673.00
2022-08-02T22:44:44.263Z,95668.88
2022-08-02T22:47:14.826Z,95683.19
2022-08-02T22:49:54.396Z,95679.03
2022-08-02T22:52:23.845Z,95674.09
2022-08-02T22:54:54.888Z,95689.09
2022-08-02T22:59:02.779Z,95668.06
2022-08-02T22:59:12.948Z,95660.53
2022-08-02T23:00:11.719Z,95685.94
2022-08-02T23:02:39.338Z,95688.19
2022-08-02T23:05:07.686Z,95685.50
2022-08-02T23:07:38.792Z,95693.69
2022-08-02T23:10:10.025Z,95686.72
2022-08-02T23:12:37.650Z,95695.44
2022-08-02T23:15:06.467Z,95689.88
2022-08-02T23:17:52.918Z,95683.22
2022-08-02T23:20:21.119Z,95689.03
2022-08-02T23:22:48.758Z,95678.34
2022-08-02T23:25:19.239Z,95679.97
2022-08-02T23:27:50.784Z,95684.03
2022-08-02T23:30:19.549Z,95679.50
2022-08-02T23:32:47.575Z,95679.38
2022-08-02T23:35:17.061Z,95675.56
2022-08-02T23:38:00.222Z,95677.75
2022-08-02T23:40:40.142Z,95681.00
2022-08-02T23:43:14.667Z,95680.91
2022-08-02T23:45:44.466Z,95685.09
2022-08-02T23:48:12.170Z,95681.28
2022-08-02T23:50:39.986Z,95672.66
2022-08-02T23:53:07.721Z,95681.28
2022-08-02T23:55:37.181Z,95683.47
2022-08-02T23:58:04.818Z,95683.47
